Time;durP1;ratioP1;P1;durP2;ratioP2;P2;SDS_P1;SDS_P2;PMS_P1;PMS_P2;Temp;Humidity;BMP_temperature;BMP_pressure;BME280_temperature;BME280_humidity;BME280_pressure;Samples;Min_cycle;Max_cycle;Signal;HPM_P1;HPM_P2
2023/10/27 00:00:10;;;;;;;14.93;12.70;;;13.10;99.90;;;;;;2102557;28;20027;-73
2023/10/27 00:01:11;;;;;;;14.48;13.07;;;13.10;99.90;;;;;;2101475;28;20028;-73
2023/10/27 00:02:12;;;;;;;13.30;11.60;;;13.10;99.90;;;;;;2099783;28;20119;-73
2023/10/27 00:03:12;;;;;;;12.25;11.10;;;13.10;99.90;;;;;;2097888;28;20032;-72
2023/10/27 00:04:13;;;;;;;12.70;11.50;;;13.10;99.90;;;;;;2099547;28;20394;-72
2023/10/27 00:05:13;;;;;;;13.25;11.85;;;13.10;99.90;;;;;;2098116;28;20039;-73
2023/10/27 00:06:14;;;;;;;10.60;9.70;;;13.10;99.90;;;;;;2096751;28;20101;-73
2023/10/27 00:07:15;;;;;;;10.73;9.60;;;13.10;99.90;;;;;;2097689;28;20047;-73
2023/10/27 00:08:15;;;;;;;12.20;11.07;;;13.10;99.90;;;;;;2099052;28;20024;-73
2023/10/27 00:09:16;;;;;;;11.48;10.38;;;13.10;99.90;;;;;;2099150;28;20747;-73
2023/10/27 00:10:17;;;;;;;12.75;11.23;;;13.10;99.90;;;;;;2097304;28;20418;-73
2023/10/27 00:11:18;;;;;;;12.80;10.93;;;13.10;99.90;;;;;;2096883;28;20028;-73
2023/10/27 00:12:18;;;;;;;14.15;12.38;;;13.10;99.90;;;;;;2098626;28;20020;-73
2023/10/27 00:13:19;;;;;;;11.60;10.50;;;13.10;99.90;;;;;;2096400;28;20031;-72
2023/10/27 00:14:20;;;;;;;13.15;10.25;;;13.10;99.90;;;;;;2097941;28;20028;-72
2023/10/27 00:15:21;;;;;;;11.48;9.45;;;13.10;99.90;;;;;;2096965;28;20028;-72
2023/10/27 00:16:22;;;;;;;11.65;10.52;;;13.00;99.90;;;;;;2097045;28;20054;-72
2023/10/27 00:17:25;;;;;;;10.82;9.75;;;13.00;99.90;;;;;;2100369;28;20028;-73
2023/10/27 00:18:25;;;;;;;11.20;10.07;;;13.00;99.90;;;;;;2102783;28;20406;-73
2023/10/27 00:19:26;;;;;;;11.70;10.50;;;13.00;99.90;;;;;;2098354;28;20052;-72
2023/10/27 00:20:26;;;;;;;11.30;9.40;;;13.00;99.90;;;;;;2099799;28;20044;-73
2023/10/27 00:21:27;;;;;;;10.60;9.60;;;13.00;99.90;;;;;;2100801;28;20035;-72
2023/10/27 00:22:27;;;;;;;11.00;9.90;;;13.00;99.90;;;;;;2098192;28;20033;-72
2023/10/27 00:23:28;;;;;;;10.10;9.15;;;13.00;99.90;;;;;;2098306;28;20032;-72
2023/10/27 00:24:28;;;;;;;12.40;10.18;;;12.90;99.90;;;;;;2099399;28;20541;-73
2023/10/27 00:25:29;;;;;;;12.10;10.40;;;12.90;99.90;;;;;;2096587;28;20035;-72
2023/10/27 00:26:29;;;;;;;10.88;9.88;;;12.90;99.90;;;;;;2097242;28;20048;-73
2023/10/27 00:27:30;;;;;;;10.77;9.77;;;12.90;99.90;;;;;;2097993;28;20039;-73
2023/10/27 00:28:31;;;;;;;9.70;8.85;;;12.80;99.90;;;;;;2096628;28;20062;-73
2023/10/27 00:29:32;;;;;;;9.85;8.82;;;12.90;99.90;;;;;;2101008;28;20074;-73
2023/10/27 00:30:32;;;;;;;9.90;9.00;;;12.80;99.90;;;;;;2094781;28;20035;-73
2023/10/27 00:31:33;;;;;;;11.40;9.45;;;12.80;99.90;;;;;;2096247;28;20025;-73
2023/10/27 00:32:33;;;;;;;10.93;9.93;;;12.80;99.90;;;;;;2097381;28;20025;-73
2023/10/27 00:33:34;;;;;;;10.00;8.48;;;12.70;99.90;;;;;;2101479;28;20020;-73
2023/10/27 00:34:35;;;;;;;11.15;10.15;;;12.70;99.90;;;;;;2101693;28;20028;-73
2023/10/27 00:35:35;;;;;;;9.48;8.68;;;12.70;99.90;;;;;;2097276;28;20031;-72
2023/10/27 00:36:36;;;;;;;11.18;10.15;;;12.70;99.90;;;;;;2099085;28;20056;-73
2023/10/27 00:37:37;;;;;;;11.88;9.68;;;12.70;99.90;;;;;;2098131;28;20028;-72
2023/10/27 00:38:37;;;;;;;10.27;9.35;;;12.70;99.90;;;;;;2103891;28;20031;-73
2023/10/27 00:39:41;;;;;;;10.52;9.60;;;12.60;99.90;;;;;;2101300;28;20071;-72
2023/10/27 00:40:41;;;;;;;12.52;10.20;;;12.60;99.90;;;;;;2097471;28;20024;-73
2023/10/27 00:41:42;;;;;;;11.23;10.15;;;12.60;99.90;;;;;;2098377;28;20111;-72
2023/10/27 00:42:42;;;;;;;10.48;9.40;;;12.60;99.90;;;;;;2105521;28;20524;-73
2023/10/27 00:43:43;;;;;;;10.68;8.63;;;12.50;99.90;;;;;;2103596;28;20052;-72
2023/10/27 00:44:46;;;;;;;10.25;7.13;;;12.50;99.90;;;;;;2099115;28;20046;-73
2023/10/27 00:45:49;;;;;;;16.40;7.95;;;12.50;99.90;;;;;;2092240;28;20035;-72
2023/10/27 00:46:51;;;;;;;9.60;8.80;;;12.50;99.90;;;;;;2098593;28;20024;-73
2023/10/27 00:47:51;;;;;;;8.63;7.93;;;12.40;99.90;;;;;;2096041;28;20795;-72
2023/10/27 00:48:52;;;;;;;9.73;8.93;;;12.40;99.90;;;;;;2099250;28;20397;-72
2023/10/27 00:49:54;;;;;;;9.68;8.68;;;12.40;99.90;;;;;;2092154;28;20123;-72
2023/10/27 00:50:55;;;;;;;8.88;8.18;;;12.40;99.90;;;;;;2093796;28;20070;-72
2023/10/27 00:51:55;;;;;;;10.80;8.75;;;12.30;99.90;;;;;;2096745;28;20052;-72
2023/10/27 00:52:56;;;;;;;9.75;8.88;;;12.30;99.90;;;;;;2104976;28;20051;-73
2023/10/27 00:53:59;;;;;;;8.93;8.13;;;12.30;99.90;;;;;;2106407;28;20028;-72
2023/10/27 00:55:00;;;;;;;8.65;7.38;;;12.30;99.90;;;;;;2096003;28;20033;-73
2023/10/27 00:56:02;;;;;;;8.30;7.50;;;12.20;99.90;;;;;;2098403;28;20068;-72
2023/10/27 00:57:04;;;;;;;8.20;7.50;;;12.20;99.90;;;;;;2098561;28;20375;-73
2023/10/27 00:58:06;;;;;;;9.23;8.43;;;12.20;99.90;;;;;;2097747;28;20856;-73
2023/10/27 00:59:06;;;;;;;9.70;8.50;;;12.10;99.90;;;;;;2097565;28;20494;-72
2023/10/27 01:00:08;;;;;;;8.85;8.05;;;12.10;99.90;;;;;;2098147;28;20491;-72
2023/10/27 01:01:12;;;;;;;8.57;7.78;;;12.10;99.90;;;;;;2097314;28;20031;-72
2023/10/27 01:02:16;;;;;;;8.57;7.70;;;12.10;99.90;;;;;;2099687;28;20028;-72
2023/10/27 01:03:17;;;;;;;10.50;8.00;;;12.10;99.90;;;;;;2099202;28;20434;-73
2023/10/27 01:04:18;;;;;;;9.18;8.38;;;12.10;99.90;;;;;;2098875;28;20380;-72
2023/10/27 01:05:18;;;;;;;8.60;7.70;;;12.00;99.90;;;;;;2097735;28;20119;-73
2023/10/27 01:06:19;;;;;;;9.63;8.73;;;12.00;99.90;;;;;;2097320;28;20032;-72
2023/10/27 01:07:21;;;;;;;7.93;7.20;;;12.00;99.90;;;;;;2099095;28;20036;-73
2023/10/27 01:08:22;;;;;;;9.50;8.55;;;12.00;99.90;;;;;;2097349;28;20159;-72
2023/10/27 01:09:23;;;;;;;9.27;8.38;;;11.90;99.90;;;;;;2098758;28;20124;-73
2023/10/27 01:10:24;;;;;;;9.88;8.80;;;11.90;99.90;;;;;;2098696;28;20036;-73
2023/10/27 01:11:25;;;;;;;9.50;8.60;;;11.90;99.90;;;;;;2098279;28;20078;-73
2023/10/27 01:12:25;;;;;;;8.90;8.10;;;11.90;99.90;;;;;;2096057;28;20025;-73
2023/10/27 01:13:26;;;;;;;10.05;9.02;;;11.90;99.90;;;;;;2098794;28;20020;-73
2023/10/27 01:14:27;;;;;;;9.55;8.57;;;11.80;99.90;;;;;;2100152;28;20620;-73
2023/10/27 01:15:30;;;;;;;8.90;8.10;;;11.80;99.90;;;;;;2098647;28;20023;-73
2023/10/27 01:16:30;;;;;;;9.40;8.48;;;11.80;99.90;;;;;;2097082;28;20025;-73
2023/10/27 01:17:31;;;;;;;9.73;8.82;;;11.80;99.90;;;;;;2096647;28;20033;-73
2023/10/27 01:18:31;;;;;;;9.52;8.65;;;11.80;99.90;;;;;;2096746;28;20468;-73
2023/10/27 01:19:32;;;;;;;8.95;8.15;;;11.80;99.90;;;;;;2102252;28;20052;-73
2023/10/27 01:20:32;;;;;;;9.23;8.32;;;11.70;99.90;;;;;;2101066;28;20077;-73
2023/10/27 01:21:33;;;;;;;9.13;8.23;;;11.80;99.90;;;;;;2096447;28;20463;-73
2023/10/27 01:22:40;;;;;;;9.93;8.90;;;11.70;99.90;;;;;;2096864;28;20037;-72
2023/10/27 01:23:41;;;;;;;10.15;9.15;;;11.70;99.90;;;;;;2097202;28;20097;-73
2023/10/27 01:24:42;;;;;;;9.55;8.55;;;11.70;99.90;;;;;;2098927;28;20722;-73
2023/10/27 01:25:42;;;;;;;10.65;9.60;;;11.70;99.90;;;;;;2099908;28;20510;-73
2023/10/27 01:26:43;;;;;;;8.93;8.18;;;11.70;99.90;;;;;;2096931;28;20430;-73
2023/10/27 01:27:44;;;;;;;9.32;8.43;;;11.70;99.90;;;;;;2096652;28;20029;-73
2023/10/27 01:28:44;;;;;;;10.15;8.40;;;11.70;99.90;;;;;;2096544;28;20084;-73
2023/10/27 01:29:45;;;;;;;10.90;9.90;;;11.70;99.90;;;;;;2098161;28;20020;-73
2023/10/27 01:30:45;;;;;;;10.00;9.10;;;11.70;99.90;;;;;;2097663;28;20020;-73
2023/10/27 01:31:46;;;;;;;11.27;10.20;;;11.70;99.90;;;;;;2100600;28;20024;-72
2023/10/27 01:32:47;;;;;;;11.45;10.32;;;11.70;99.90;;;;;;2095619;28;20021;-73
2023/10/27 01:33:47;;;;;;;16.05;12.52;;;11.70;99.90;;;;;;2100012;28;20021;-72
2023/10/27 01:34:48;;;;;;;14.82;12.70;;;11.70;99.90;;;;;;2102238;28;20020;-72
2023/10/27 01:35:53;;;;;;;15.35;13.25;;;11.70;99.90;;;;;;2103058;28;20409;-72
2023/10/27 01:36:54;;;;;;;14.95;13.30;;;11.70;99.90;;;;;;2097361;28;20032;-73
2023/10/27 01:37:54;;;;;;;18.20;14.38;;;11.70;99.90;;;;;;2099578;28;20028;-73
2023/10/27 01:38:55;;;;;;;14.95;13.00;;;11.70;99.90;;;;;;2103710;28;20107;-73
2023/10/27 01:39:58;;;;;;;19.45;15.35;;;11.70;99.90;;;;;;2103542;28;20032;-72
2023/10/27 01:40:59;;;;;;;16.13;14.43;;;11.70;99.90;;;;;;2099901;28;20032;-73
2023/10/27 01:41:59;;;;;;;15.43;13.82;;;11.70;99.90;;;;;;2098182;28;20040;-73
2023/10/27 01:43:00;;;;;;;14.13;12.77;;;11.70;99.90;;;;;;2101532;28;20028;-73
2023/10/27 01:44:00;;;;;;;14.85;13.35;;;11.70;99.90;;;;;;2100995;28;20032;-72
2023/10/27 01:45:05;;;;;;;18.05;15.30;;;11.70;99.90;;;;;;2098052;28;20072;-73
2023/10/27 01:46:06;;;;;;;16.92;14.20;;;11.80;99.90;;;;;;2100389;28;20028;-71
2023/10/27 01:47:06;;;;;;;17.52;15.60;;;11.80;99.90;;;;;;2100053;28;20032;-73
2023/10/27 01:48:07;;;;;;;17.58;15.80;;;11.80;99.90;;;;;;2097709;28;20622;-72
2023/10/27 01:49:07;;;;;;;16.42;14.65;;;11.80;99.90;;;;;;2099915;28;20024;-73
2023/10/27 01:50:08;;;;;;;17.25;15.45;;;11.80;99.90;;;;;;2105507;28;20047;-73
2023/10/27 01:51:09;;;;;;;17.02;14.52;;;11.80;99.90;;;;;;2098582;28;20111;-73
2023/10/27 01:52:09;;;;;;;17.67;15.88;;;11.80;99.90;;;;;;2098435;28;20056;-72
2023/10/27 01:53:10;;;;;;;18.13;16.17;;;11.80;99.90;;;;;;2099509;28;20467;-73
2023/10/27 01:54:10;;;;;;;19.38;15.75;;;11.80;99.90;;;;;;2099309;28;20025;-72
2023/10/27 01:55:11;;;;;;;17.15;15.40;;;11.80;99.90;;;;;;2097811;28;20032;-72
2023/10/27 01:56:11;;;;;;;17.95;16.08;;;11.80;99.90;;;;;;2098475;28;20651;-72
2023/10/27 01:57:12;;;;;;;18.10;15.88;;;11.90;99.90;;;;;;2098361;28;20066;-72
2023/10/27 01:58:12;;;;;;;19.00;16.08;;;11.90;99.90;;;;;;2100463;28;20020;-73
2023/10/27 01:59:13;;;;;;;17.88;16.00;;;11.90;99.90;;;;;;2098397;28;20063;-73
2023/10/27 02:00:14;;;;;;;17.95;16.05;;;11.90;99.90;;;;;;2097303;28;20028;-72
2023/10/27 02:01:15;;;;;;;17.70;15.90;;;11.90;99.90;;;;;;2099178;28;20027;-73
2023/10/27 02:02:16;;;;;;;17.52;15.25;;;11.90;99.90;;;;;;2099232;28;20134;-72
2023/10/27 02:03:16;;;;;;;17.98;14.60;;;12.00;99.90;;;;;;2098537;28;20108;-73
2023/10/27 02:04:20;;;;;;;16.58;14.77;;;11.90;99.90;;;;;;2098381;28;20047;-73
2023/10/27 02:05:20;;;;;;;18.17;15.68;;;12.00;99.90;;;;;;2101511;28;20028;-72
2023/10/27 02:06:24;;;;;;;20.70;15.20;;;12.00;99.90;;;;;;2099546;28;20642;-73
2023/10/27 02:07:25;;;;;;;17.27;15.48;;;12.00;99.90;;;;;;2097693;28;20403;-72
2023/10/27 02:08:26;;;;;;;18.20;15.75;;;12.00;99.90;;;;;;2098482;28;20071;-73
2023/10/27 02:09:26;;;;;;;17.13;15.40;;;12.00;99.90;;;;;;2097754;28;20326;-73
2023/10/27 02:10:27;;;;;;;21.27;16.08;;;12.00;99.90;;;;;;2099672;28;20025;-73
2023/10/27 02:11:27;;;;;;;18.77;15.98;;;12.00;99.90;;;;;;2098632;28;20028;-72
2023/10/27 02:12:28;;;;;;;17.23;14.65;;;12.00;99.90;;;;;;2099372;28;20067;-73
2023/10/27 02:13:29;;;;;;;17.50;15.63;;;12.00;99.90;;;;;;2099105;28;20602;-73
2023/10/27 02:14:29;;;;;;;19.48;15.02;;;12.00;99.90;;;;;;2098044;28;20033;-73
2023/10/27 02:15:30;;;;;;;18.25;15.20;;;12.00;99.90;;;;;;2105823;28;20016;-73
2023/10/27 02:16:31;;;;;;;17.23;15.07;;;12.10;99.90;;;;;;2103256;28;20029;-73
2023/10/27 02:17:32;;;;;;;24.73;15.77;;;12.10;99.90;;;;;;2100864;28;20377;-73
2023/10/27 02:18:33;;;;;;;16.67;14.80;;;12.10;99.90;;;;;;2095340;28;20086;-73
2023/10/27 02:19:33;;;;;;;18.48;14.40;;;12.10;99.90;;;;;;2104397;28;20024;-73
2023/10/27 02:20:35;;;;;;;21.88;15.77;;;12.10;99.90;;;;;;2101836;28;20427;-73
2023/10/27 02:21:36;;;;;;;21.85;15.05;;;12.10;99.90;;;;;;2101950;28;20119;-73
2023/10/27 02:22:36;;;;;;;18.20;13.70;;;12.10;99.90;;;;;;2099333;28;20456;-73
2023/10/27 02:23:37;;;;;;;18.92;15.07;;;12.20;99.90;;;;;;2099719;28;20028;-73
2023/10/27 02:24:38;;;;;;;21.83;14.45;;;12.20;99.90;;;;;;2103285;28;20035;-73
2023/10/27 02:25:38;;;;;;;20.05;15.00;;;12.20;99.90;;;;;;2091782;28;20503;-73
2023/10/27 02:26:39;;;;;;;16.20;13.70;;;12.20;99.90;;;;;;2097075;28;20498;-73
2023/10/27 02:27:41;;;;;;;18.85;15.18;;;12.20;99.90;;;;;;2101841;28;20028;-73
2023/10/27 02:28:41;;;;;;;15.27;13.68;;;12.20;99.90;;;;;;2103219;28;20021;-73
2023/10/27 02:29:42;;;;;;;18.08;14.10;;;12.20;99.90;;;;;;2102591;28;20813;-73
2023/10/27 02:30:43;;;;;;;18.13;14.18;;;12.20;99.90;;;;;;2098908;28;20374;-73
2023/10/27 02:31:43;;;;;;;22.63;14.88;;;12.30;99.90;;;;;;2099498;28;20664;-73
2023/10/27 02:32:44;;;;;;;21.02;14.23;;;12.30;99.90;;;;;;2098356;28;20036;-73
2023/10/27 02:33:45;;;;;;;17.33;14.13;;;12.30;99.90;;;;;;2098726;28;20115;-73
2023/10/27 02:34:45;;;;;;;17.58;13.70;;;12.30;99.90;;;;;;2099325;28;20414;-73
2023/10/27 02:35:46;;;;;;;18.42;14.68;;;12.30;99.90;;;;;;2098276;28;20025;-73
2023/10/27 02:36:47;;;;;;;18.08;13.93;;;12.30;99.90;;;;;;2097196;28;20103;-73
2023/10/27 02:37:47;;;;;;;17.05;13.65;;;12.30;99.90;;;;;;2097533;28;20047;-73
2023/10/27 02:38:48;;;;;;;18.63;12.57;;;12.30;99.90;;;;;;2098667;28;20095;-73
2023/10/27 02:39:48;;;;;;;19.92;14.10;;;12.30;99.90;;;;;;2099418;28;20081;-73
2023/10/27 02:40:49;;;;;;;17.38;13.02;;;12.40;99.90;;;;;;2097729;28;20514;-73
2023/10/27 02:41:49;;;;;;;17.23;13.05;;;12.40;99.90;;;;;;2098923;28;20031;-73
2023/10/27 02:42:50;;;;;;;17.98;13.20;;;12.30;99.90;;;;;;2096174;28;20028;-73
2023/10/27 02:43:50;;;;;;;18.90;12.70;;;12.40;99.90;;;;;;2097136;28;20542;-73
2023/10/27 02:44:51;;;;;;;20.27;12.60;;;12.40;99.90;;;;;;2100771;28;20383;-73
2023/10/27 02:46:02;;;;;;;14.48;12.32;;;12.40;99.90;;;;;;2097724;28;20051;-73
2023/10/27 02:47:02;;;;;;;16.35;12.20;;;12.40;99.90;;;;;;2097802;28;20029;-73
2023/10/27 02:48:03;;;;;;;16.52;12.90;;;12.40;99.90;;;;;;2097141;28;20032;-73
2023/10/27 02:49:04;;;;;;;17.10;12.55;;;12.40;99.90;;;;;;2106641;28;20025;-72
2023/10/27 02:50:04;;;;;;;17.13;12.48;;;12.40;99.90;;;;;;2108514;28;20055;-72
2023/10/27 02:51:05;;;;;;;17.40;11.80;;;12.40;99.90;;;;;;2098926;28;20020;-73
2023/10/27 02:52:06;;;;;;;17.80;12.57;;;12.40;99.90;;;;;;2102721;28;20032;-73
2023/10/27 02:53:06;;;;;;;15.73;11.68;;;12.40;99.90;;;;;;2101994;28;20494;-72
2023/10/27 02:54:07;;;;;;;16.13;12.23;;;12.40;99.90;;;;;;2102757;28;20746;-73
2023/10/27 02:55:08;;;;;;;17.27;11.88;;;12.50;99.90;;;;;;2103768;28;20039;-73
2023/10/27 02:56:09;;;;;;;14.73;11.77;;;12.40;99.90;;;;;;2098118;28;20031;-73
2023/10/27 02:57:10;;;;;;;15.02;11.18;;;12.50;99.90;;;;;;2098592;28;20059;-72
2023/10/27 02:58:11;;;;;;;13.57;11.52;;;12.50;99.90;;;;;;2100293;28;20048;-73
2023/10/27 02:59:11;;;;;;;12.40;11.10;;;12.50;99.90;;;;;;2099238;28;20738;-72
2023/10/27 03:00:12;;;;;;;14.65;11.00;;;12.50;99.90;;;;;;2099443;28;20029;-72
2023/10/27 03:01:14;;;;;;;14.27;11.90;;;12.50;99.90;;;;;;2098911;28;20115;-72
2023/10/27 03:02:14;;;;;;;15.18;11.70;;;12.50;99.90;;;;;;2097872;28;20391;-72
2023/10/27 03:03:15;;;;;;;15.35;11.82;;;12.50;99.90;;;;;;2100080;28;20095;-72
2023/10/27 03:04:16;;;;;;;18.05;11.48;;;12.50;99.90;;;;;;2097439;28;20028;-73
2023/10/27 03:05:17;;;;;;;12.98;10.88;;;12.50;99.90;;;;;;2098998;28;20062;-72
2023/10/27 03:06:18;;;;;;;14.65;10.73;;;12.60;99.90;;;;;;2099935;28;20032;-73
2023/10/27 03:07:18;;;;;;;14.07;11.25;;;12.60;99.90;;;;;;2099007;28;20511;-73
2023/10/27 03:08:19;;;;;;;15.27;11.25;;;12.60;99.90;;;;;;2097032;28;20412;-73
2023/10/27 03:09:19;;;;;;;13.82;10.60;;;12.60;99.90;;;;;;2100529;28;20028;-73
2023/10/27 03:10:20;;;;;;;15.95;11.85;;;12.60;99.90;;;;;;2102157;28;20426;-72
2023/10/27 03:11:20;;;;;;;12.48;10.65;;;12.60;99.90;;;;;;2097412;28;20025;-73
2023/10/27 03:12:21;;;;;;;16.15;10.85;;;12.60;99.90;;;;;;2098296;28;20581;-72
2023/10/27 03:13:21;;;;;;;13.02;10.60;;;12.60;99.90;;;;;;2098513;28;20114;-73
2023/10/27 03:14:22;;;;;;;13.55;10.30;;;12.60;99.90;;;;;;2099831;28;20028;-73
2023/10/27 03:15:22;;;;;;;12.88;9.40;;;12.60;99.90;;;;;;2099659;28;20024;-72
2023/10/27 03:16:23;;;;;;;14.82;10.27;;;12.70;99.90;;;;;;2101105;28;20051;-73
2023/10/27 03:17:25;;;;;;;13.57;10.98;;;12.70;99.90;;;;;;2098652;28;20434;-73
2023/10/27 03:18:26;;;;;;;14.05;10.48;;;12.70;99.90;;;;;;2098568;28;20031;-73
2023/10/27 03:19:27;;;;;;;15.57;9.90;;;12.70;99.90;;;;;;2099032;28;20024;-72
2023/10/27 03:20:28;;;;;;;14.73;8.45;;;12.70;99.90;;;;;;2100927;28;20043;-73
2023/10/27 03:21:29;;;;;;;11.25;8.80;;;12.70;99.90;;;;;;2097124;28;20099;-72
2023/10/27 03:22:29;;;;;;;12.63;9.50;;;12.70;99.90;;;;;;2098404;28;20725;-73
2023/10/27 03:23:30;;;;;;;13.48;10.10;;;12.70;99.90;;;;;;2099322;28;20033;-73
2023/10/27 03:24:30;;;;;;;12.98;9.80;;;12.70;99.90;;;;;;2098169;28;20082;-73
2023/10/27 03:25:31;;;;;;;13.48;10.52;;;12.70;99.90;;;;;;2098030;28;20102;-72
2023/10/27 03:26:31;;;;;;;18.05;10.65;;;12.70;99.90;;;;;;2098824;28;20036;-73
2023/10/27 03:27:32;;;;;;;14.07;9.90;;;12.70;99.90;;;;;;2097165;28;20468;-72
2023/10/27 03:28:32;;;;;;;13.55;10.18;;;12.70;99.90;;;;;;2099182;28;20032;-73
2023/10/27 03:29:33;;;;;;;14.95;9.68;;;12.70;99.90;;;;;;2098077;28;20391;-73
2023/10/27 03:30:33;;;;;;;13.45;10.05;;;12.70;99.90;;;;;;2099086;28;20775;-73
2023/10/27 03:31:34;;;;;;;14.07;9.55;;;12.70;99.90;;;;;;2100365;28;20040;-72
2023/10/27 03:32:35;;;;;;;12.27;8.98;;;12.70;99.90;;;;;;2097367;28;20048;-75
2023/10/27 03:33:35;;;;;;;10.27;8.43;;;12.80;99.90;;;;;;2098473;28;20472;-73
2023/10/27 03:34:36;;;;;;;10.18;9.10;;;12.80;99.90;;;;;;2107812;28;20024;-73
2023/10/27 03:35:42;;;;;;;13.30;9.65;;;12.70;99.90;;;;;;2105931;28;20027;-72
2023/10/27 03:36:43;;;;;;;10.90;8.65;;;12.70;99.90;;;;;;2102673;28;20032;-72
2023/10/27 03:37:43;;;;;;;13.05;9.75;;;12.70;99.90;;;;;;2101738;28;20031;-72
2023/10/27 03:38:44;;;;;;;11.60;9.45;;;12.80;99.90;;;;;;2098392;28;20037;-72
2023/10/27 03:39:44;;;;;;;13.32;9.63;;;12.80;99.90;;;;;;2099240;28;20032;-72
2023/10/27 03:40:47;;;;;;;12.40;9.27;;;12.80;99.90;;;;;;2098908;28;20016;-74
2023/10/27 03:41:48;;;;;;;14.65;9.60;;;12.70;99.90;;;;;;2098840;28;20031;-72
2023/10/27 03:42:48;;;;;;;12.73;10.07;;;12.80;99.90;;;;;;2099946;28;20371;-72
2023/10/27 03:43:52;;;;;;;14.00;10.30;;;12.80;99.90;;;;;;2104980;28;20028;-72
2023/10/27 03:44:52;;;;;;;11.23;8.98;;;12.80;99.90;;;;;;2106852;28;20147;-72
2023/10/27 03:45:53;;;;;;;10.40;9.07;;;12.80;99.90;;;;;;2097593;28;20595;-72
2023/10/27 03:46:53;;;;;;;11.93;9.32;;;12.80;99.90;;;;;;2097814;28;20044;-72
2023/10/27 03:47:54;;;;;;;10.93;8.98;;;12.80;99.90;;;;;;2098810;28;20025;-72
2023/10/27 03:48:55;;;;;;;12.50;8.80;;;12.80;99.90;;;;;;2098806;28;20025;-72
2023/10/27 03:49:56;;;;;;;13.38;10.05;;;12.80;99.90;;;;;;2097138;28;20040;-72
2023/10/27 03:50:57;;;;;;;12.90;10.20;;;12.80;99.90;;;;;;2098070;28;20101;-72
2023/10/27 03:51:59;;;;;;;10.55;8.45;;;12.80;99.90;;;;;;2099021;28;20619;-72
2023/10/27 03:52:59;;;;;;;13.15;10.60;;;12.80;99.90;;;;;;2097712;28;20024;-72
2023/10/27 03:54:00;;;;;;;13.02;9.13;;;12.80;99.90;;;;;;2099245;28;20095;-72
2023/10/27 03:55:02;;;;;;;13.25;9.40;;;12.80;99.90;;;;;;2097629;28;20098;-72
2023/10/27 03:56:02;;;;;;;12.23;9.73;;;12.80;99.90;;;;;;2098620;28;20027;-72
2023/10/27 03:57:03;;;;;;;12.15;8.25;;;12.80;99.90;;;;;;2100304;28;20103;-72
2023/10/27 03:58:21;;;;;;;12.13;9.35;;;12.80;99.90;;;;;;2097176;28;20028;-73
2023/10/27 03:59:22;;;;;;;11.27;9.65;;;12.80;99.90;;;;;;2097280;28;20021;-72
2023/10/27 04:00:25;;;;;;;12.38;9.25;;;12.80;99.90;;;;;;2097784;28;20040;-72
2023/10/27 04:01:27;;;;;;;13.48;9.55;;;12.80;99.90;;;;;;2097119;28;20029;-72
2023/10/27 04:02:28;;;;;;;11.90;9.43;;;12.80;99.90;;;;;;2097347;28;20515;-72
2023/10/27 04:03:31;;;;;;;10.38;8.70;;;12.80;99.90;;;;;;2100439;28;20123;-72
2023/10/27 04:04:33;;;;;;;10.05;8.80;;;12.80;99.90;;;;;;2097965;28;20166;-71
2023/10/27 04:05:33;;;;;;;13.75;9.50;;;12.80;99.90;;;;;;2097185;28;20090;-72
2023/10/27 04:06:34;;;;;;;12.82;9.98;;;12.80;99.90;;;;;;2099033;28;20063;-72
2023/10/27 04:07:35;;;;;;;14.35;8.90;;;12.80;99.90;;;;;;2100181;28;20034;-72
2023/10/27 04:08:36;;;;;;;11.02;8.93;;;12.80;99.90;;;;;;2100310;28;20059;-72
2023/10/27 04:09:36;;;;;;;10.27;8.88;;;12.80;99.90;;;;;;2099922;28;20028;-72
2023/10/27 04:10:37;;;;;;;12.07;9.80;;;12.80;99.90;;;;;;2101290;28;20035;-73
2023/10/27 04:11:38;;;;;;;11.43;8.73;;;12.80;99.90;;;;;;2100752;28;20036;-72
2023/10/27 04:12:38;;;;;;;19.70;8.30;;;12.90;99.90;;;;;;2099347;28;20102;-72
2023/10/27 04:13:39;;;;;;;15.85;8.07;;;12.90;99.90;;;;;;2096385;28;20119;-72
2023/10/27 04:14:40;;;;;;;12.73;8.73;;;12.80;99.90;;;;;;2096795;28;20464;-72
2023/10/27 04:15:40;;;;;;;9.52;7.68;;;12.80;99.90;;;;;;2097750;28;20116;-72
2023/10/27 04:16:41;;;;;;;11.93;9.63;;;12.80;99.90;;;;;;2102408;28;20055;-72
2023/10/27 04:17:41;;;;;;;14.68;10.40;;;12.80;99.90;;;;;;2100870;28;20051;-72
2023/10/27 04:18:42;;;;;;;14.75;9.82;;;12.80;99.90;;;;;;2097909;28;20377;-72
2023/10/27 04:19:46;;;;;;;12.85;10.40;;;12.80;99.90;;;;;;2095182;28;20040;-72
2023/10/27 04:20:46;;;;;;;16.30;10.88;;;12.80;99.90;;;;;;2101963;28;20031;-72
2023/10/27 04:21:47;;;;;;;11.98;9.88;;;12.80;99.90;;;;;;2093935;28;20028;-72
2023/10/27 04:22:47;;;;;;;14.38;10.50;;;12.80;99.90;;;;;;2098510;28;20478;-72
2023/10/27 04:23:48;;;;;;;11.43;8.40;;;12.80;99.90;;;;;;2098669;28;20027;-72
2023/10/27 04:24:49;;;;;;;14.32;9.82;;;12.80;99.90;;;;;;2098457;28;20031;-72
2023/10/27 04:25:51;;;;;;;11.60;8.60;;;12.80;99.90;;;;;;2097199;28;20036;-72
2023/10/27 04:26:52;;;;;;;12.25;8.85;;;12.80;99.90;;;;;;2100444;28;20058;-73
2023/10/27 04:27:55;;;;;;;15.27;9.27;;;12.80;99.90;;;;;;2098780;28;20043;-72
2023/10/27 04:28:55;;;;;;;8.38;7.40;;;12.80;99.90;;;;;;2097411;28;20491;-72
2023/10/27 04:29:57;;;;;;;11.68;8.63;;;12.80;99.90;;;;;;2097027;28;20485;-72
2023/10/27 04:30:57;;;;;;;10.63;7.00;;;12.80;99.90;;;;;;2100254;28;20037;-73
2023/10/27 04:31:58;;;;;;;11.00;7.00;;;12.80;99.90;;;;;;2098268;28;20036;-72
2023/10/27 04:32:59;;;;;;;11.85;7.88;;;12.90;99.90;;;;;;2097219;28;20024;-73
2023/10/27 04:34:00;;;;;;;13.82;9.00;;;12.80;99.90;;;;;;2098639;28;20150;-72
2023/10/27 04:35:00;;;;;;;11.95;8.07;;;12.80;99.90;;;;;;2098603;28;20020;-72
2023/10/27 04:36:01;;;;;;;9.27;7.55;;;12.80;99.90;;;;;;2098227;28;20107;-72
2023/10/27 04:37:01;;;;;;;16.73;9.88;;;12.80;99.90;;;;;;2096409;28;20515;-72
2023/10/27 04:38:03;;;;;;;8.18;6.55;;;12.80;99.90;;;;;;2097669;28;20032;-72
2023/10/27 04:39:04;;;;;;;11.95;8.88;;;12.80;99.90;;;;;;2099904;28;20092;-73
2023/10/27 04:40:05;;;;;;;9.32;8.38;;;12.80;99.90;;;;;;2091690;28;20090;-72
2023/10/27 04:41:05;;;;;;;11.00;8.00;;;12.80;99.90;;;;;;2100634;28;20036;-71
2023/10/27 04:42:07;;;;;;;12.75;7.32;;;12.80;99.90;;;;;;2098107;28;20028;-71
2023/10/27 04:43:07;;;;;;;10.07;8.88;;;12.80;99.90;;;;;;2099583;28;20027;-72
2023/10/27 04:44:08;;;;;;;11.18;8.32;;;12.80;99.90;;;;;;2101658;28;20035;-72
2023/10/27 04:45:09;;;;;;;11.63;8.38;;;12.80;99.90;;;;;;2099969;28;20024;-72
2023/10/27 04:46:10;;;;;;;12.55;7.30;;;12.80;99.90;;;;;;2098273;28;20067;-72
2023/10/27 04:47:10;;;;;;;9.65;7.03;;;12.80;99.90;;;;;;2097455;28;20234;-74
2023/10/27 04:48:11;;;;;;;10.07;8.63;;;12.80;99.90;;;;;;2097487;28;20035;-72
2023/10/27 04:49:11;;;;;;;12.30;7.88;;;12.80;99.90;;;;;;2099007;28;20067;-72
2023/10/27 04:50:12;;;;;;;10.23;8.00;;;12.80;99.90;;;;;;2096442;28;20024;-72
2023/10/27 04:51:12;;;;;;;9.32;8.23;;;12.80;99.90;;;;;;2099512;28;20035;-72
2023/10/27 04:52:13;;;;;;;12.82;9.32;;;12.80;99.90;;;;;;2098210;28;20481;-72
2023/10/27 04:53:13;;;;;;;11.02;8.05;;;12.80;99.90;;;;;;2097490;28;20032;-72
2023/10/27 04:54:14;;;;;;;8.27;7.43;;;12.80;99.90;;;;;;2098062;28;20085;-72
2023/10/27 04:55:15;;;;;;;8.32;7.55;;;12.80;99.90;;;;;;2097354;28;20025;-72
2023/10/27 04:56:16;;;;;;;8.80;7.28;;;12.80;99.90;;;;;;2098492;28;20571;-72
2023/10/27 04:57:16;;;;;;;8.27;7.25;;;12.80;99.90;;;;;;2098291;28;20022;-72
2023/10/27 04:58:17;;;;;;;10.88;7.95;;;12.80;99.90;;;;;;2097632;28;20028;-72
2023/10/27 04:59:18;;;;;;;10.35;7.45;;;12.80;99.90;;;;;;2097033;28;20115;-72
2023/10/27 05:00:18;;;;;;;9.98;7.35;;;12.80;99.90;;;;;;2098510;28;20206;-71
2023/10/27 05:01:24;;;;;;;11.02;7.93;;;12.80;99.90;;;;;;2097179;28;20040;-72
2023/10/27 05:02:24;;;;;;;11.23;9.43;;;12.80;99.90;;;;;;2097820;28;20368;-72
2023/10/27 05:03:27;;;;;;;14.18;9.23;;;12.80;99.90;;;;;;2098790;28;20140;-72
2023/10/27 05:04:27;;;;;;;20.10;10.55;;;12.80;99.90;;;;;;2101522;28;20182;-72
2023/10/27 05:05:28;;;;;;;11.77;10.13;;;12.80;99.90;;;;;;2100952;28;20032;-72
2023/10/27 05:06:30;;;;;;;13.00;9.40;;;12.80;99.90;;;;;;2096480;28;20048;-72
2023/10/27 05:07:30;;;;;;;12.43;9.07;;;12.80;99.90;;;;;;2097664;28;20028;-73
2023/10/27 05:08:31;;;;;;;11.40;9.57;;;12.80;99.90;;;;;;2099744;28;20508;-72
2023/10/27 05:09:32;;;;;;;13.93;9.60;;;12.70;99.90;;;;;;2097831;28;20427;-72
2023/10/27 05:10:33;;;;;;;12.50;9.75;;;12.80;99.90;;;;;;2098306;28;20099;-71
2023/10/27 05:11:35;;;;;;;15.52;9.75;;;12.70;99.90;;;;;;2097423;28;20028;-72